createdAt,value
2023-02-03T00:01:24.927Z,101727.09
2023-02-03T00:03:51.399Z,101724.06
2023-02-03T00:06:17.889Z,101729.03
2023-02-03T00:08:44.419Z,101722.94
2023-02-03T00:11:10.912Z,101721.41
2023-02-03T00:13:37.480Z,101709.97
2023-02-03T00:16:06.512Z,101724.44
2023-02-03T00:18:33.631Z,101725.56
2023-02-03T00:21:00.095Z,101722.91
2023-02-03T00:23:30.074Z,101727.13
2023-02-03T00:25:56.519Z,101739.25
2023-02-03T00:28:22.981Z,101727.81
2023-02-03T00:30:49.675Z,101724.78
2023-02-03T00:33:16.217Z,101727.47
2023-02-03T00:35:42.670Z,101726.34
2023-02-03T00:38:09.649Z,101728.25
2023-02-03T00:40:36.093Z,101743.84
2023-02-03T00:43:02.535Z,101739.25
2023-02-03T00:45:29.253Z,101738.50
2023-02-03T00:47:55.652Z,101736.94
2023-02-03T00:50:22.107Z,101720.19
2023-02-03T00:52:48.523Z,101722.50
2023-02-03T00:55:15.040Z,101720.22
2023-02-03T00:57:41.469Z,101713.75
2023-02-03T01:00:08.469Z,101708.81
2023-02-03T01:02:35.427Z,101706.91
2023-02-03T01:05:01.932Z,101716.03
2023-02-03T01:07:31.634Z,101714.09
2023-02-03T01:09:58.044Z,101707.22
2023-02-03T01:12:24.417Z,101698.84
2023-02-03T01:14:50.880Z,101703.06
2023-02-03T01:17:17.285Z,101702.75
2023-02-03T01:19:43.752Z,101700.00
2023-02-03T01:22:10.159Z,101689.75
2023-02-03T01:24:36.637Z,101696.63
2023-02-03T01:27:03.082Z,101672.25
2023-02-03T01:29:29.502Z,101674.09
2023-02-03T01:31:55.999Z,101669.19
2023-02-03T01:34:22.508Z,101668.41
2023-02-03T01:36:49.086Z,101658.63
2023-02-03T01:39:15.513Z,101663.13
2023-02-03T01:41:41.910Z,101644.88
2023-02-03T01:44:42.062Z,101634.91
2023-02-03T01:47:17.662Z,101633.44
2023-02-03T01:49:52.056Z,101631.16
2023-02-03T01:52:18.660Z,101627.75
2023-02-03T01:54:48.339Z,101629.25
2023-02-03T01:57:18.835Z,101620.03
2023-02-03T01:59:45.820Z,101614.38
2023-02-03T02:02:13.067Z,101617.00
2023-02-03T02:05:07.147Z,101617.84
2023-02-03T02:07:34.814Z,101629.97
2023-02-03T02:10:01.379Z,101623.91
2023-02-03T02:12:27.767Z,101609.06
2023-02-03T02:14:54.572Z,101612.50
2023-02-03T02:17:52.733Z,101623.97
2023-02-03T02:21:01.401Z,101627.28
2023-02-03T02:24:00.169Z,101623.16
2023-02-03T02:26:48.170Z,101637.97
2023-02-03T02:29:33.295Z,101637.19
2023-02-03T02:32:16.474Z,101630.31
2023-02-03T02:35:12.110Z,101625.81
2023-02-03T02:37:48.426Z,101618.16
2023-02-03T02:40:38.118Z,101607.53
2023-02-03T02:43:10.801Z,101603.72
2023-02-03T02:45:50.008Z,101598.47
2023-02-03T02:48:25.106Z,101589.31
2023-02-03T02:50:53.813Z,101589.72
2023-02-03T02:53:22.825Z,101585.50
2023-02-03T02:55:49.364Z,101595.00
2023-02-03T02:58:18.086Z,101579.38
2023-02-03T03:00:44.657Z,101567.22
2023-02-03T03:03:20.160Z,101555.91
2023-02-03T03:05:55.850Z,101554.78
2023-02-03T03:08:32.777Z,101555.41
2023-02-03T03:11:00.474Z,101571.34
2023-02-03T03:13:32.462Z,101571.81
2023-02-03T03:15:59.928Z,101574.09
2023-02-03T03:18:33.610Z,101569.47
2023-02-03T03:21:06.012Z,101565.44
2023-02-03T03:23:39.472Z,101553.66
2023-02-03T03:26:13.355Z,101557.84
2023-02-03T03:28:48.733Z,101551.63
2023-02-03T03:31:17.331Z,101548.69
2023-02-03T03:33:44.174Z,101540.59
2023-02-03T03:36:27.925Z,101537.50
2023-02-03T03:39:04.236Z,101545.88
2023-02-03T03:41:50.697Z,101538.34
2023-02-03T03:44:18.723Z,101519.75
2023-02-03T03:47:12.936Z,101531.94
2023-02-03T03:49:41.089Z,101529.16
2023-02-03T03:52:09.595Z,101543.56
2023-02-03T03:54:37.641Z,101547.41
2023-02-03T03:57:15.027Z,101524.44
2023-02-03T03:59:44.589Z,101538.59
2023-02-03T04:02:12.435Z,101550.34
2023-02-03T04:04:39.767Z,101553.69
2023-02-03T04:07:06.203Z,101555.03
2023-02-03T04:09:32.801Z,101550.41
2023-02-03T04:12:02.050Z,101550.00
2023-02-03T04:14:30.464Z,101557.28
2023-02-03T04:16:57.837Z,101555.81
2023-02-03T04:19:24.260Z,101554.97
2023-02-03T04:21:50.986Z,101540.53
2023-02-03T04:24:17.470Z,101556.97
2023-02-03T04:26:44.015Z,101541.75
2023-02-03T04:29:10.527Z,101523.78
2023-02-03T04:31:38.560Z,101531.38
2023-02-03T04:34:05.644Z,101529.19
2023-02-03T04:36:32.087Z,101511.63
2023-02-03T04:38:58.505Z,101526.09
2023-02-03T04:41:24.919Z,101526.09
2023-02-03T04:43:51.345Z,101510.06
2023-02-03T04:46:18.978Z,101509.41
2023-02-03T04:48:45.552Z,101500.22
2023-02-03T04:51:12.030Z,101476.97
2023-02-03T04:53:38.463Z,101482.69
2023-02-03T04:56:05.250Z,101492.94
2023-02-03T04:58:31.734Z,101470.16
2023-02-03T05:00:58.233Z,101473.56
2023-02-03T05:03:26.262Z,101472.78
2023-02-03T05:05:52.917Z,101475.22
2023-02-03T05:08:19.518Z,101459.09
2023-02-03T05:10:46.445Z,101473.19
2023-02-03T05:13:12.832Z,101482.97
2023-02-03T05:15:39.259Z,101488.75
2023-02-03T05:18:05.725Z,101492.28
2023-02-03T05:20:32.193Z,101486.78
2023-02-03T05:22:58.859Z,101497.69
2023-02-03T05:25:25.340Z,101497.34
2023-02-03T05:27:51.838Z,101486.31
2023-02-03T05:30:18.553Z,101500.81
2023-02-03T05:32:45.070Z,101494.75
2023-02-03T05:35:11.483Z,101494.03
2023-02-03T05:37:37.935Z,101484.53
2023-02-03T05:40:23.467Z,101483.34
2023-02-03T05:42:50.323Z,101481.00
2023-02-03T05:45:17.501Z,101482.19
2023-02-03T05:47:43.917Z,101487.22
2023-02-03T05:50:10.366Z,101482.59
2023-02-03T05:52:36.801Z,101478.09
2023-02-03T05:55:03.867Z,101472.78
2023-02-03T05:57:32.272Z,101462.47
2023-02-03T05:59:58.975Z,101467.59
2023-02-03T06:02:25.540Z,101466.78
2023-02-03T06:04:52.064Z,101469.75
2023-02-03T06:07:18.491Z,101467.53
2023-02-03T06:09:45.205Z,101465.03
2023-02-03T06:12:11.663Z,101452.19
2023-02-03T06:14:38.070Z,101462.06
2023-02-03T06:17:04.463Z,101462.06
2023-02-03T06:19:30.866Z,101456.81
2023-02-03T06:21:57.334Z,101460.66
2023-02-03T06:24:23.906Z,101453.28
2023-02-03T06:26:50.368Z,101455.13
2023-02-03T06:29:16.827Z,101454.44
2023-02-03T06:31:43.313Z,101449.19
2023-02-03T06:34:09.785Z,101431.56
2023-02-03T06:36:36.255Z,101440.88
2023-02-03T06:39:02.684Z,101439.00
2023-02-03T06:41:30.606Z,101422.25
2023-02-03T06:43:57.173Z,101424.22
2023-02-03T06:46:28.098Z,101437.94
2023-02-03T06:48:54.689Z,101424.47
2023-02-03T06:51:21.135Z,101422.53
2023-02-03T06:53:47.562Z,101402.25
2023-02-03T06:56:13.979Z,101414.06
2023-02-03T06:58:40.397Z,101411.34
2023-02-03T07:01:06.829Z,101415.75
2023-02-03T07:03:33.248Z,101397.88
2023-02-03T07:05:59.666Z,101383.50
2023-02-03T07:08:26.049Z,101381.47
2023-02-03T07:10:55.721Z,101391.81
2023-02-03T07:13:22.110Z,101384.56
2023-02-03T07:15:48.582Z,101393.31
2023-02-03T07:18:25.718Z,101391.44
2023-02-03T07:21:04.826Z,101397.25
2023-02-03T07:23:31.227Z,101391.78
2023-02-03T07:26:04.730Z,101385.47
2023-02-03T07:28:32.412Z,101378.38
2023-02-03T07:30:59.229Z,101373.34
2023-02-03T07:33:25.783Z,101387.03
2023-02-03T07:35:56.642Z,101390.47
2023-02-03T07:38:24.179Z,101396.69
2023-02-03T07:40:50.635Z,101400.44
2023-02-03T07:43:17.182Z,101405.59
2023-02-03T07:45:43.583Z,101411.06
2023-02-03T07:48:10.352Z,101398.81
2023-02-03T07:50:37.086Z,101393.56
2023-02-03T07:53:03.721Z,101400.16
2023-02-03T07:55:30.352Z,101391.19
2023-02-03T07:57:57.418Z,101389.53
2023-02-03T08:00:25.006Z,101411.47
2023-02-03T08:02:51.882Z,101405.53
2023-02-03T08:05:18.617Z,101402.91
2023-02-03T08:07:45.333Z,101411.78
2023-02-03T08:10:13.112Z,101401.97
2023-02-03T08:12:39.743Z,101403.41
2023-02-03T08:15:06.930Z,101404.22
2023-02-03T08:17:33.719Z,101404.16
2023-02-03T08:20:00.415Z,101409.03
2023-02-03T08:22:27.097Z,101414.91
2023-02-03T08:24:53.685Z,101412.16
2023-02-03T08:27:22.546Z,101417.31
2023-02-03T08:29:48.982Z,101415.66
2023-02-03T08:32:18.135Z,101422.50
2023-02-03T08:34:44.942Z,101423.22
2023-02-03T08:37:17.199Z,101417.53
2023-02-03T08:39:43.980Z,101430.31
2023-02-03T08:42:10.512Z,101437.28
2023-02-03T08:44:39.006Z,101433.66
2023-02-03T08:47:06.348Z,101440.50
2023-02-03T08:49:33.161Z,101457.00
2023-02-03T08:51:59.609Z,101458.72
2023-02-03T08:54:26.062Z,101450.09
2023-02-03T08:56:52.547Z,101435.97
2023-02-03T08:59:19.038Z,101453.16
2023-02-03T09:01:46.549Z,101467.97
2023-02-03T09:04:13.243Z,101475.28
2023-02-03T09:06:40.153Z,101468.59
2023-02-03T09:09:06.629Z,101482.88
2023-02-03T09:11:33.081Z,101514.47
2023-02-03T09:13:59.481Z,101511.75
2023-02-03T09:16:26.104Z,101502.28
2023-02-03T09:18:52.679Z,101518.19
2023-02-03T09:21:32.273Z,101514.50
2023-02-03T09:24:03.927Z,101520.88
2023-02-03T09:26:30.582Z,101533.81
2023-02-03T09:28:57.977Z,101535.00
2023-02-03T09:31:24.471Z,101510.97
2023-02-03T09:33:50.875Z,101530.72
2023-02-03T09:36:17.339Z,101540.59
2023-02-03T09:38:43.907Z,101529.94
2023-02-03T09:41:12.031Z,101536.66
2023-02-03T09:43:44.470Z,101522.41
2023-02-03T09:46:19.348Z,101534.41
2023-02-03T09:48:49.441Z,101527.06
2023-02-03T09:51:26.492Z,101535.41
2023-02-03T09:54:25.796Z,101533.88
2023-02-03T09:56:55.631Z,101542.59
2023-02-03T09:59:22.885Z,101537.31
2023-02-03T10:01:55.404Z,101553.25
2023-02-03T10:04:40.089Z,101559.75
2023-02-03T10:07:15.063Z,101578.38
2023-02-03T10:10:04.533Z,101571.09
2023-02-03T10:12:45.437Z,101582.50
2023-02-03T10:15:20.928Z,101581.75
2023-02-03T10:17:54.755Z,101579.78
2023-02-03T10:20:35.772Z,101590.84
2023-02-03T10:23:06.449Z,101600.28
2023-02-03T10:25:49.797Z,101594.31
2023-02-03T10:28:22.269Z,101591.19
2023-02-03T10:31:01.432Z,101600.69
2023-02-03T10:33:29.649Z,101607.16
2023-02-03T10:36:22.086Z,101594.75
2023-02-03T10:38:48.425Z,101592.84
2023-02-03T10:41:19.271Z,101590.19
2023-02-03T10:43:52.873Z,101591.50
2023-02-03T10:46:30.850Z,101579.22
2023-02-03T10:48:57.617Z,101600.50
2023-02-03T10:51:32.108Z,101618.66
2023-02-03T10:53:58.959Z,101621.56
2023-02-03T10:56:38.839Z,101622.44
2023-02-03T10:59:07.272Z,101640.84
2023-02-03T11:01:48.021Z,101644.19
2023-02-03T11:04:33.087Z,101649.25
2023-02-03T11:07:02.145Z,101631.50
2023-02-03T11:09:32.415Z,101643.03
2023-02-03T11:12:16.339Z,101636.19
2023-02-03T11:14:51.009Z,101635.25
2023-02-03T11:17:27.598Z,101647.72
2023-02-03T11:19:57.089Z,101640.22
2023-02-03T11:22:37.375Z,101617.53
2023-02-03T11:25:05.864Z,101617.81
2023-02-03T11:27:33.007Z,101626.88
2023-02-03T11:30:27.078Z,101640.47
2023-02-03T11:32:54.021Z,101636.47
2023-02-03T11:35:29.050Z,101646.22
2023-02-03T11:37:57.227Z,101656.13
2023-02-03T11:40:26.622Z,101654.31
2023-02-03T11:42:53.135Z,101671.88
2023-02-03T11:45:25.565Z,101667.09
2023-02-03T11:48:31.317Z,101676.00
2023-02-03T11:51:31.915Z,101674.00
2023-02-03T11:54:29.911Z,101679.25
2023-02-03T11:57:21.824Z,101668.03
2023-02-03T12:00:00.234Z,101669.31
2023-02-03T12:02:35.704Z,101667.06
2023-02-03T12:05:10.964Z,101669.53
2023-02-03T12:08:02.228Z,101674.28
2023-02-03T12:10:41.980Z,101681.38
2023-02-03T12:13:30.329Z,101681.78
2023-02-03T12:16:08.911Z,101678.63
2023-02-03T12:18:57.911Z,101689.41
2023-02-03T12:21:29.477Z,101701.31
2023-02-03T12:24:10.462Z,101689.53
2023-02-03T12:27:15.236Z,101703.75
2023-02-03T12:29:45.305Z,101712.22
2023-02-03T12:32:30.464Z,101705.59
2023-02-03T12:35:18.296Z,101693.13
2023-02-03T12:37:52.948Z,101693.84
2023-02-03T12:40:33.999Z,101701.91
2023-02-03T12:43:15.923Z,101703.34
2023-02-03T12:45:53.416Z,101702.75
2023-02-03T12:48:23.720Z,101700.25
2023-02-03T12:50:56.882Z,101702.97
2023-02-03T12:53:31.799Z,101721.81
2023-02-03T12:56:04.334Z,101701.25
2023-02-03T12:58:35.486Z,101697.75
2023-02-03T13:01:16.983Z,101695.16
2023-02-03T13:03:57.203Z,101699.09
2023-02-03T13:06:50.236Z,101712.97
2023-02-03T13:09:31.915Z,101712.72
2023-02-03T13:12:13.923Z,101692.88
2023-02-03T13:14:52.862Z,101711.88
2023-02-03T13:17:24.473Z,101715.19
2023-02-03T13:20:20.241Z,101721.53
2023-02-03T13:22:47.100Z,101724.88
2023-02-03T13:25:24.054Z,101721.16
2023-02-03T13:27:59.597Z,101771.06
2023-02-03T13:30:38.237Z,101726.34
2023-02-03T13:33:28.297Z,101745.41
2023-02-03T13:36:20.750Z,101733.16
2023-02-03T13:39:24.569Z,101744.34
2023-02-03T13:41:57.008Z,101751.88
2023-02-03T13:44:28.525Z,101744.44
2023-02-03T13:46:57.496Z,101741.56
2023-02-03T13:49:34.709Z,101756.69
2023-02-03T13:52:01.273Z,101751.00
2023-02-03T13:54:34.431Z,101755.28
2023-02-03T13:57:04.369Z,101765.56
2023-02-03T13:59:42.174Z,101774.31
2023-02-03T14:02:24.431Z,101771.53
2023-02-03T14:04:55.797Z,101767.41
2023-02-03T14:07:33.597Z,101781.50
2023-02-03T14:10:24.840Z,101799.47
2023-02-03T14:12:51.201Z,101783.66
2023-02-03T14:15:28.284Z,101783.97
2023-02-03T14:17:58.186Z,101782.47
2023-02-03T14:20:27.675Z,101805.53
2023-02-03T14:23:07.674Z,101804.38
2023-02-03T14:25:40.279Z,101812.25
2023-02-03T14:28:11.317Z,101822.22
2023-02-03T14:31:10.479Z,101810.16
2023-02-03T14:33:51.544Z,101816.22
2023-02-03T14:36:45.247Z,101821.97
2023-02-03T14:39:17.865Z,101841.31
2023-02-03T14:42:05.331Z,101846.66
2023-02-03T14:44:35.273Z,101845.38
2023-02-03T14:47:09.703Z,101839.91
2023-02-03T14:49:44.104Z,101846.44
2023-02-03T14:53:01.312Z,101857.47
2023-02-03T14:55:36.311Z,101845.28
2023-02-03T14:58:07.694Z,101857.03
2023-02-03T15:00:35.416Z,101869.34
2023-02-03T15:03:11.132Z,101870.94
2023-02-03T15:05:45.522Z,101866.38
2023-02-03T15:08:50.604Z,101854.19
2023-02-03T15:11:22.672Z,101874.38
2023-02-03T15:13:49.144Z,101857.94
2023-02-03T15:16:19.993Z,101882.34
2023-02-03T15:18:53.023Z,101880.09
2023-02-03T15:21:20.320Z,101874.19
2023-02-03T15:23:51.954Z,101893.81
2023-02-03T15:26:21.066Z,101895.41
2023-02-03T15:28:58.312Z,101913.63
2023-02-03T15:31:35.055Z,101907.38
2023-02-03T15:34:23.947Z,101893.72
2023-02-03T15:36:52.512Z,101912.75
2023-02-03T15:39:26.592Z,101904.00
2023-02-03T15:41:54.805Z,101905.19
2023-02-03T15:44:43.614Z,101902.09
2023-02-03T15:47:21.169Z,101901.06
2023-02-03T15:49:53.587Z,101915.09
2023-02-03T15:52:22.210Z,101917.81
2023-02-03T15:54:54.020Z,101915.72
2023-02-03T15:57:26.980Z,101903.69
2023-02-03T15:59:56.559Z,101919.94
2023-02-03T16:02:29.120Z,101925.34
2023-02-03T16:04:55.771Z,101917.66
2023-02-03T16:07:27.764Z,101932.97
2023-02-03T16:09:55.834Z,101927.63
2023-02-03T16:12:27.560Z,101931.72
2023-02-03T16:14:55.606Z,101925.75
2023-02-03T16:17:36.693Z,101927.41
2023-02-03T16:20:22.868Z,101934.56
2023-02-03T16:23:16.835Z,101954.09
2023-02-03T16:25:43.234Z,101956.03
2023-02-03T16:28:31.791Z,101965.91
2023-02-03T16:31:30.680Z,101962.28
2023-02-03T16:34:15.891Z,101966.94
2023-02-03T16:37:02.898Z,101973.09
2023-02-03T16:39:48.175Z,101955.22
2023-02-03T16:42:38.967Z,101957.47
2023-02-03T16:45:36.025Z,101956.28
2023-02-03T16:48:22.334Z,101975.63
2023-02-03T16:50:58.249Z,101982.00
2023-02-03T16:53:28.170Z,101991.72
2023-02-03T16:55:56.292Z,101997.38
2023-02-03T16:58:22.790Z,101978.97
2023-02-03T17:00:51.555Z,101984.94
2023-02-03T17:03:23.230Z,101975.75
2023-02-03T17:05:50.551Z,101983.78
2023-02-03T17:08:19.990Z,101984.28
2023-02-03T17:10:48.025Z,102002.09
2023-02-03T17:13:15.178Z,101993.47
2023-02-03T17:15:49.880Z,101971.41
2023-02-03T17:18:17.159Z,101997.66
2023-02-03T17:20:45.235Z,102006.44
2023-02-03T17:23:12.191Z,101992.44
2023-02-03T17:25:39.434Z,101999.28
2023-02-03T17:28:08.651Z,102009.09
2023-02-03T17:30:35.672Z,102010.66
2023-02-03T17:33:04.448Z,102019.91
2023-02-03T17:35:31.212Z,102003.72
2023-02-03T17:37:57.998Z,102028.09
2023-02-03T17:54:07.395Z,102064.78
2023-02-03T17:56:35.641Z,102060.03
2023-02-03T17:59:03.604Z,102066.47
2023-02-03T18:01:30.361Z,102071.22
2023-02-03T18:04:00.025Z,102073.44
2023-02-03T18:06:28.053Z,102077.78
2023-02-03T18:08:54.916Z,102091.38
2023-02-03T18:11:21.427Z,102100.94
2023-02-03T18:13:49.002Z,102096.44
2023-02-03T18:16:17.384Z,102108.03
2023-02-03T18:18:44.933Z,102116.56
2023-02-03T18:21:13.561Z,102108.22
2023-02-03T18:23:40.440Z,102112.50
2023-02-03T18:26:08.740Z,102119.50
2023-02-03T18:28:35.870Z,102128.69
2023-02-03T18:31:06.879Z,102124.19
2023-02-03T18:33:34.284Z,102133.47
2023-02-03T18:36:02.193Z,102138.03
2023-02-03T18:38:31.156Z,102138.78
2023-02-03T18:40:57.630Z,102150.13
2023-02-03T18:43:24.029Z,102142.66
2023-02-03T18:45:50.529Z,102161.56
2023-02-03T18:48:16.952Z,102155.94
2023-02-03T18:50:44.427Z,102156.53
2023-02-03T18:53:13.641Z,102157.84
2023-02-03T18:55:43.898Z,102149.06
2023-02-03T18:58:13.038Z,102162.84
2023-02-03T19:00:40.872Z,102160.50
2023-02-03T19:03:07.951Z,102164.22
2023-02-03T19:05:34.362Z,102197.00
2023-02-03T19:08:00.925Z,102186.63
2023-02-03T19:10:27.813Z,102177.81
2023-02-03T19:12:54.637Z,102178.72
2023-02-03T19:15:21.069Z,102193.44
2023-02-03T19:17:47.497Z,102184.75
2023-02-03T19:20:13.951Z,102200.03
2023-02-03T19:22:40.365Z,102215.88
2023-02-03T19:25:06.916Z,102223.03
2023-02-03T19:27:33.469Z,102195.94
2023-02-03T19:29:59.938Z,102234.28
2023-02-03T19:32:26.706Z,102234.88
2023-02-03T19:34:53.197Z,102239.72
2023-02-03T19:37:19.621Z,102235.16
2023-02-03T19:39:50.302Z,102241.19
2023-02-03T19:42:17.259Z,102253.38
2023-02-03T19:44:43.797Z,102248.03
2023-02-03T19:47:10.352Z,102249.56
2023-02-03T19:49:36.825Z,102277.97
2023-02-03T19:52:03.473Z,102263.25
2023-02-03T19:54:30.184Z,102249.78
2023-02-03T19:56:57.421Z,102260.44
2023-02-03T19:59:23.853Z,102283.19
2023-02-03T20:01:50.370Z,102268.66
2023-02-03T20:04:16.841Z,102281.69
2023-02-03T20:06:43.251Z,102287.00
2023-02-03T20:09:09.957Z,102271.25
2023-02-03T20:11:36.469Z,102281.78
2023-02-03T20:14:03.056Z,102280.69
2023-02-03T20:16:29.691Z,102277.47
2023-02-03T20:18:56.402Z,102280.13
2023-02-03T20:21:23.120Z,102293.94
2023-02-03T20:23:49.577Z,102295.75
2023-02-03T20:26:15.996Z,102325.19
2023-02-03T20:28:42.420Z,102297.56
2023-02-03T20:31:08.938Z,102331.63
2023-02-03T20:33:35.485Z,102307.25
2023-02-03T20:36:02.111Z,102318.41
2023-02-03T20:38:28.676Z,102321.28
2023-02-03T20:40:55.270Z,102317.50
2023-02-03T20:43:27.576Z,102331.03
2023-02-03T20:45:54.409Z,102331.88
2023-02-03T20:48:22.518Z,102341.06
2023-02-03T20:50:50.159Z,102338.88
2023-02-03T20:53:19.905Z,102341.72
2023-02-03T20:55:47.222Z,102344.06
2023-02-03T20:58:19.678Z,102358.59
2023-02-03T21:00:46.862Z,102360.88
2023-02-03T21:03:32.959Z,102362.03
2023-02-03T21:05:59.442Z,102350.09
2023-02-03T21:08:27.358Z,102351.94
2023-02-03T21:10:55.096Z,102369.41
2023-02-03T21:13:27.328Z,102354.75
2023-02-03T21:16:07.423Z,102366.72
2023-02-03T21:18:37.728Z,102348.56
2023-02-03T21:21:04.875Z,102339.53
2023-02-03T21:23:42.508Z,102362.19
2023-02-03T21:26:20.983Z,102360.25
2023-02-03T21:28:49.093Z,102363.72
2023-02-03T21:31:20.017Z,102354.34
2023-02-03T21:33:46.530Z,102352.09
2023-02-03T21:36:16.988Z,102358.41
2023-02-03T21:38:43.760Z,102387.38
2023-02-03T21:41:16.674Z,102371.94
2023-02-03T21:43:44.846Z,102356.94
2023-02-03T21:46:28.718Z,102372.25
2023-02-03T21:48:59.534Z,102372.13
2023-02-03T21:51:34.893Z,102367.50
2023-02-03T21:54:03.810Z,102371.88
2023-02-03T21:56:41.331Z,102389.59
2023-02-03T21:59:38.489Z,102396.59
2023-02-03T22:02:43.098Z,102386.28
2023-02-03T22:05:15.705Z,102385.22
2023-02-03T22:07:42.743Z,102392.72
2023-02-03T22:10:09.418Z,102396.00
2023-02-03T22:12:35.882Z,102408.97
2023-02-03T22:15:02.295Z,102422.91
2023-02-03T22:17:29.521Z,102450.47
2023-02-03T22:19:55.937Z,102459.53
2023-02-03T22:22:22.375Z,102470.69
2023-02-03T22:24:49.105Z,102475.63
2023-02-03T22:27:15.624Z,102480.19
2023-02-03T22:29:42.048Z,102479.00
2023-02-03T22:32:08.735Z,102492.13
2023-02-03T22:34:35.109Z,102485.22
2023-02-03T22:37:01.536Z,102517.97
2023-02-03T22:39:27.956Z,102512.75
2023-02-03T22:41:54.396Z,102512.00
2023-02-03T22:44:21.178Z,102508.31
2023-02-03T22:46:47.653Z,102535.50
2023-02-03T22:49:14.330Z,102532.84
2023-02-03T22:51:41.050Z,102542.94
2023-02-03T22:54:07.485Z,102542.06
2023-02-03T22:56:33.940Z,102556.22
2023-02-03T22:59:00.341Z,102551.69
2023-02-03T23:01:26.762Z,102556.22
2023-02-03T23:03:53.181Z,102585.84
2023-02-03T23:06:19.606Z,102575.91
2023-02-03T23:08:45.985Z,102574.38
2023-02-03T23:11:12.679Z,102579.34
2023-02-03T23:13:39.080Z,102580.56
2023-02-03T23:16:05.724Z,102588.72
2023-02-03T23:18:32.185Z,102603.53
2023-02-03T23:20:58.601Z,102608.44
2023-02-03T23:23:25.045Z,102616.78
2023-02-03T23:25:51.716Z,102617.47
2023-02-03T23:28:18.176Z,102618.94
2023-02-03T23:30:44.722Z,102617.69
2023-02-03T23:33:11.221Z,102630.47
2023-02-03T23:35:46.554Z,102616.59
2023-02-03T23:38:14.411Z,102633.59
2023-02-03T23:40:40.835Z,102635.13
2023-02-03T23:43:07.300Z,102659.19
2023-02-03T23:45:33.726Z,102666.03
2023-02-03T23:48:00.344Z,102663.50
2023-02-03T23:50:27.040Z,102665.84
2023-02-03T23:52:53.484Z,102666.28
2023-02-03T23:55:23.524Z,102662.94
2023-02-03T23:57:50.453Z,102683.47
